LiveATC.Net - Listen to live air traffic control over the Internet!


ICAO: KHBG  IATA: HBG   Airport: Hattiesburg Bobby L Chain Municipal Airport
City: Hattiesburg   State/Province: Mississippi
Country: United States   Continent: North America
KHBG METAR Weather: KHBG 191953Z AUTO 21008KT 10SM SCT044 32/22 A2984 RMK AO2 SLP102 T03170217
KHBG Flight Activity (FlightAware)
KHBG Airport Info   (iFlightPlanner)
KHBG VFR Sectional Chart   (iFlightPlanner) 
KHBG IFR Low Chart   (iFlightPlanner) 

KHBG CTAF (Air Race Classic)
Feed Status: UP   Listeners: 0
Listen in your browser - HTML5 player (in browser, HTML5)
Click here to listen with your own player (launches your MP3 player)
KHBG CTAF (Air Race Classic) Audio Archives
FacilityFrequency
Hattiesburg CTAF122.800

NOTICE

Unauthorized use prohibited. See LiveATC.net Terms of Service


Find LiveATC Audio Streams


Airport/ARTCC Code

Frequency Search
(e.g., 124.400, 128.75)
Site-wide search
 


Browse LiveATC Feeds
Top 50 LiveATC Feeds
LiveATC Feed Map
Bad Weather Areas

LiveATC FAQ
Offer LiveATC feed
Contact LiveATC.net
Press Inquiries

LiveATC on iPhone
LiveATC on Android

Windows Phone
Windows 8/10

LiveATC Mobile
(Mobile browser)

ATC Audio Archives
Interesting Recordings

LiveATC Forums


Home Page
About LiveATC.net
Make a Donation
Terms of Use
Privacy Policy

Canadian Air Freqs

AIRMETs/SIGMETs

FAA Airport Status
Nat'l Airspace Status
Arrival Demand Charts


Server Software By:
Icecast.org
Liquidsoap